createdAt,value
2022-10-22T00:00:53.683Z,98946.20
2022-10-22T00:03:35.812Z,98950.20
2022-10-22T00:06:03.848Z,98946.60
2022-10-22T00:08:31.686Z,98947.40
2022-10-22T00:10:59.493Z,98950.60
2022-10-22T00:13:27.222Z,98948.80
2022-10-22T00:15:54.944Z,98949.20
2022-10-22T00:18:22.623Z,98958.20
2022-10-22T00:20:50.317Z,98950.40
2022-10-22T00:23:18.039Z,98949.80
2022-10-22T00:25:45.869Z,98952.60
2022-10-22T00:28:15.021Z,98939.00
2022-10-22T00:30:42.749Z,98945.20
2022-10-22T00:33:10.521Z,98950.00
2022-10-22T00:35:38.357Z,98943.80
2022-10-22T00:38:06.115Z,98943.00
2022-10-22T00:40:33.776Z,98939.00
2022-10-22T00:43:01.493Z,98940.80
2022-10-22T00:45:29.509Z,98930.80
2022-10-22T00:48:04.748Z,98923.60
2022-10-22T00:50:57.442Z,98925.00
2022-10-22T00:53:31.985Z,98918.00
2022-10-22T00:55:59.675Z,98927.00
2022-10-22T00:58:29.602Z,98931.00
2022-10-22T01:00:57.466Z,98927.80
2022-10-22T01:03:25.947Z,98926.80
2022-10-22T01:05:58.979Z,98927.80
2022-10-22T01:08:55.040Z,98920.00
2022-10-22T01:11:46.861Z,98905.00
2022-10-22T01:14:43.474Z,98902.80
2022-10-22T01:17:41.346Z,98909.20
2022-10-22T01:20:17.447Z,98900.60
2022-10-22T01:23:38.580Z,98901.60
2022-10-22T01:26:37.414Z,98907.20
2022-10-22T01:29:20.308Z,98906.60
2022-10-22T01:31:55.720Z,98911.00
2022-10-22T01:34:23.491Z,98913.40
2022-10-22T01:36:51.744Z,98907.60
2022-10-22T01:39:20.085Z,98901.20
2022-10-22T01:41:47.907Z,98901.40
2022-10-22T01:44:26.372Z,98890.20
2022-10-22T01:47:26.316Z,98887.60
2022-10-22T01:50:30.576Z,98897.20
2022-10-22T01:53:17.949Z,98887.80
2022-10-22T01:56:14.705Z,98891.20
2022-10-22T01:58:52.215Z,98891.20
2022-10-22T02:01:36.888Z,98886.20
2022-10-22T02:04:34.037Z,98887.80
2022-10-22T02:07:06.706Z,98882.20
2022-10-22T02:09:34.630Z,98887.20
2022-10-22T02:14:39.501Z,98879.40
2022-10-22T02:17:09.382Z,98880.80
2022-10-22T02:19:44.787Z,98875.20
2022-10-22T02:22:12.541Z,98866.60
2022-10-22T02:24:40.340Z,98871.60
2022-10-22T02:27:36.432Z,98869.80
2022-10-22T02:30:25.414Z,98870.20
2022-10-22T02:36:18.481Z,98861.20
2022-10-22T02:38:46.949Z,98854.80
2022-10-22T02:41:16.628Z,98845.60
2022-10-22T02:43:49.229Z,98844.80
2022-10-22T02:46:17.011Z,98848.60
2022-10-22T02:48:44.735Z,98845.40
2022-10-22T02:51:12.565Z,98855.00
2022-10-22T02:53:40.504Z,98873.40
2022-10-22T02:56:08.715Z,98902.00
2022-10-22T02:58:36.464Z,98913.20
2022-10-22T03:01:04.363Z,98905.40
2022-10-22T03:03:32.267Z,98903.40
2022-10-22T03:06:00.028Z,98909.00
2022-10-22T03:08:27.895Z,98916.80
2022-10-22T03:10:55.602Z,98889.20
2022-10-22T03:13:23.320Z,98870.80
2022-10-22T03:15:51.346Z,98883.20
2022-10-22T03:18:19.163Z,98878.60
2022-10-22T03:20:46.840Z,98874.20
2022-10-22T03:23:17.432Z,98868.60
2022-10-22T03:25:45.340Z,98864.00
2022-10-22T03:28:13.587Z,98865.20
2022-10-22T03:30:41.257Z,98867.00
2022-10-22T03:33:09.016Z,98867.60
2022-10-22T03:35:45.704Z,98866.40
2022-10-22T03:38:13.498Z,98858.20
2022-10-22T03:40:42.670Z,98855.40
2022-10-22T03:43:10.354Z,98853.60
2022-10-22T03:48:10.698Z,98850.40
2022-10-22T03:50:38.519Z,98850.00
2022-10-22T03:53:07.306Z,98842.20
2022-10-22T03:55:35.001Z,98845.80
2022-10-22T03:58:02.829Z,98845.20
2022-10-22T04:00:30.577Z,98847.80
2022-10-22T04:02:58.365Z,98848.60
2022-10-22T04:05:26.124Z,98848.60
2022-10-22T04:07:53.855Z,98845.60
2022-10-22T04:10:21.753Z,98858.00
2022-10-22T04:12:49.695Z,98859.60
2022-10-22T04:15:17.944Z,98854.20
2022-10-22T04:17:45.768Z,98863.20
2022-10-22T04:20:13.568Z,98862.20
2022-10-22T04:22:41.394Z,98860.20
2022-10-22T04:25:09.802Z,98855.80
2022-10-22T04:27:37.792Z,98850.20
2022-10-22T04:30:07.039Z,98853.00
2022-10-22T04:32:34.786Z,98853.80
2022-10-22T04:35:02.686Z,98857.40
2022-10-22T04:37:30.437Z,98850.60
2022-10-22T04:39:58.448Z,98848.40
2022-10-22T04:42:26.373Z,98849.40
2022-10-22T04:44:54.135Z,98847.60
2022-10-22T04:47:22.036Z,98844.20
2022-10-22T04:49:49.712Z,98837.60
2022-10-22T04:52:17.409Z,98825.40
2022-10-22T04:54:45.208Z,98821.60
2022-10-22T04:57:14.555Z,98826.60
2022-10-22T04:59:42.459Z,98831.00
2022-10-22T05:02:10.323Z,98814.60
2022-10-22T05:04:38.019Z,98818.80
2022-10-22T05:07:05.852Z,98822.40
2022-10-22T05:09:33.650Z,98813.80
2022-10-22T05:12:01.385Z,98827.80
2022-10-22T05:14:29.095Z,98821.80
2022-10-22T05:16:56.868Z,98829.40
2022-10-22T05:19:31.750Z,98837.00
2022-10-22T05:22:01.650Z,98845.80
2022-10-22T05:24:30.336Z,98848.00
2022-10-22T05:26:59.115Z,98833.20
2022-10-22T05:29:27.082Z,98837.80
2022-10-22T05:31:54.993Z,98846.40
2022-10-22T05:34:23.023Z,98831.80
2022-10-22T05:36:50.842Z,98828.60
2022-10-22T05:39:18.533Z,98832.00
2022-10-22T05:41:46.237Z,98837.00
2022-10-22T05:44:14.085Z,98839.80
2022-10-22T05:46:43.533Z,98847.80
2022-10-22T05:49:16.274Z,98846.00
2022-10-22T05:51:44.105Z,98838.40
2022-10-22T05:54:18.599Z,98845.80
2022-10-22T05:56:46.491Z,98854.40
2022-10-22T05:59:14.224Z,98857.60
2022-10-22T06:01:42.351Z,98852.80
2022-10-22T06:04:12.178Z,98858.80
2022-10-22T06:06:44.167Z,98856.60
2022-10-22T06:09:26.543Z,98869.40
2022-10-22T06:11:55.222Z,98873.40
2022-10-22T06:14:23.398Z,98881.00
2022-10-22T06:16:51.406Z,98886.80
2022-10-22T06:19:21.404Z,98887.80
2022-10-22T06:21:49.304Z,98894.00
2022-10-22T06:24:17.102Z,98884.60
2022-10-22T06:26:46.084Z,98893.20
2022-10-22T06:29:14.077Z,98897.00
2022-10-22T06:31:41.890Z,98886.80
2022-10-22T06:34:13.766Z,98892.60
2022-10-22T06:36:42.950Z,98894.60
2022-10-22T06:39:12.595Z,98893.80
2022-10-22T06:41:40.500Z,98892.80
2022-10-22T06:44:09.232Z,98885.60
2022-10-22T06:46:40.073Z,98888.40
2022-10-22T06:49:12.915Z,98891.00
2022-10-22T06:51:40.745Z,98887.80
2022-10-22T06:54:08.505Z,98891.60
2022-10-22T06:56:36.311Z,98892.40
2022-10-22T06:59:04.110Z,98903.60
2022-10-22T07:01:33.725Z,98909.40
2022-10-22T07:04:01.969Z,98906.40
2022-10-22T07:06:29.735Z,98909.00
2022-10-22T07:08:58.749Z,98916.00
2022-10-22T07:11:33.502Z,98918.00
2022-10-22T07:14:01.369Z,98923.20
2022-10-22T07:16:31.295Z,98922.00
2022-10-22T07:19:01.785Z,98921.20
2022-10-22T07:21:30.087Z,98931.40
2022-10-22T07:23:59.343Z,98933.00
2022-10-22T07:26:30.666Z,98933.80
2022-10-22T07:29:00.601Z,98928.60
2022-10-22T07:31:28.634Z,98929.40
2022-10-22T07:33:57.296Z,98933.60
2022-10-22T07:36:25.078Z,98933.20
2022-10-22T07:38:57.686Z,98929.00
2022-10-22T07:41:26.443Z,98929.20
2022-10-22T07:43:54.617Z,98932.00
2022-10-22T07:46:22.396Z,98925.20
2022-10-22T07:48:50.204Z,98913.80
2022-10-22T07:51:17.919Z,98927.40
2022-10-22T07:53:45.868Z,98926.20
2022-10-22T07:56:14.191Z,98929.60
2022-10-22T07:58:41.862Z,98933.80
2022-10-22T08:01:09.741Z,98934.20
2022-10-22T08:03:37.750Z,98928.60
2022-10-22T08:06:05.917Z,98932.80
2022-10-22T08:08:34.914Z,98932.80
2022-10-22T08:11:02.845Z,98925.60
2022-10-22T08:13:30.928Z,98929.20
2022-10-22T08:16:00.043Z,98929.80
2022-10-22T08:18:28.343Z,98927.00
2022-10-22T08:20:56.284Z,98927.60
2022-10-22T08:23:26.121Z,98920.00
2022-10-22T08:25:57.523Z,98924.00
2022-10-22T08:28:26.073Z,98930.20
2022-10-22T08:30:53.939Z,98935.20
2022-10-22T08:33:21.708Z,98942.40
2022-10-22T08:35:50.777Z,98946.00
2022-10-22T08:38:18.702Z,98954.00
2022-10-22T08:40:53.135Z,98954.80
2022-10-22T08:43:59.351Z,98956.20
2022-10-22T08:47:24.106Z,98953.20
2022-10-22T08:49:53.480Z,98947.60
2022-10-22T08:52:21.153Z,98939.40
2022-10-22T08:54:54.152Z,98936.60
2022-10-22T08:57:40.158Z,98937.60
2022-10-22T09:00:15.601Z,98946.00
2022-10-22T09:03:27.404Z,98946.00
2022-10-22T09:06:21.396Z,98944.20
2022-10-22T09:08:49.464Z,98939.60
2022-10-22T09:11:38.004Z,98946.80
2022-10-22T09:14:06.093Z,98961.80
2022-10-22T09:16:43.551Z,98969.80
2022-10-22T09:19:33.156Z,98963.00
2022-10-22T09:22:25.285Z,98958.80
2022-10-22T09:24:59.122Z,98953.60
2022-10-22T09:27:31.649Z,98957.80
2022-10-22T09:30:00.876Z,98960.40
2022-10-22T09:32:28.809Z,98969.00
2022-10-22T09:34:58.430Z,98970.20
2022-10-22T09:37:28.699Z,98976.40
2022-10-22T09:39:57.542Z,98983.40
2022-10-22T09:42:25.427Z,98987.80
2022-10-22T09:44:58.480Z,98979.80
2022-10-22T09:51:24.162Z,98972.00
2022-10-22T09:54:01.111Z,98974.20
2022-10-22T09:56:36.168Z,98970.00
2022-10-22T09:59:04.516Z,98968.20
2022-10-22T10:01:36.581Z,98975.20
2022-10-22T10:04:09.574Z,98981.80
2022-10-22T10:06:40.612Z,98986.20
2022-10-22T10:09:20.086Z,98986.60
2022-10-22T10:12:09.510Z,98987.60
2022-10-22T10:14:46.621Z,98988.80
2022-10-22T10:17:31.129Z,98987.00
2022-10-22T10:20:46.346Z,98983.00
2022-10-22T10:23:42.054Z,98976.60
2022-10-22T10:26:47.834Z,98977.80
2022-10-22T10:32:34.753Z,98974.60
2022-10-22T10:35:30.973Z,98965.20
2022-10-22T10:38:27.324Z,98966.20
2022-10-22T10:41:10.537Z,98959.80
2022-10-22T10:44:15.175Z,98961.00
2022-10-22T10:47:27.103Z,98964.20
2022-10-22T10:50:00.150Z,98967.40
2022-10-22T10:52:41.050Z,98967.80
2022-10-22T10:55:31.080Z,98968.80
2022-10-22T10:58:12.709Z,98967.20
2022-10-22T11:00:54.095Z,98963.40
2022-10-22T11:03:36.235Z,98963.40
2022-10-22T11:06:09.402Z,98963.00
2022-10-22T11:09:18.775Z,98962.00
2022-10-22T11:11:54.122Z,98954.20
2022-10-22T11:15:03.820Z,98954.60
2022-10-22T11:17:41.507Z,98942.40
2022-10-22T11:20:41.438Z,98942.40
2022-10-22T11:23:20.847Z,98939.20
2022-10-22T11:25:50.593Z,98937.80
2022-10-22T11:28:27.333Z,98940.80
2022-10-22T11:31:25.610Z,98941.40
2022-10-22T11:34:31.967Z,98950.80
2022-10-22T11:36:59.334Z,98947.80
2022-10-22T11:39:49.421Z,98948.20
2022-10-22T11:42:23.140Z,98948.20
2022-10-22T11:45:28.731Z,98947.40
2022-10-22T11:47:56.644Z,98943.60
2022-10-22T11:50:56.769Z,98946.20
2022-10-22T11:53:36.245Z,98947.80
2022-10-22T11:56:07.243Z,98949.40
2022-10-22T11:58:39.434Z,98944.00
2022-10-22T12:01:07.188Z,98942.00
2022-10-22T12:03:34.931Z,98941.00
2022-10-22T12:06:20.882Z,98946.80
2022-10-22T12:08:48.813Z,98945.00
2022-10-22T12:11:36.731Z,98943.20
2022-10-22T12:14:28.180Z,98948.20
2022-10-22T12:16:58.186Z,98946.60
2022-10-22T12:19:40.263Z,98953.00
2022-10-22T12:22:26.248Z,98956.80
2022-10-22T12:24:57.334Z,98958.80
2022-10-22T12:27:34.898Z,98955.80
2022-10-22T12:30:16.910Z,98952.20
2022-10-22T12:32:44.849Z,98943.80
2022-10-22T12:35:20.693Z,98940.60
2022-10-22T12:37:52.919Z,98935.40
2022-10-22T12:40:26.691Z,98935.20
2022-10-22T12:43:03.154Z,98933.20
2022-10-22T12:45:32.954Z,98935.60
2022-10-22T12:48:03.656Z,98930.80
2022-10-22T12:50:40.462Z,98935.40
2022-10-22T12:53:40.010Z,98935.60
2022-10-22T12:56:13.660Z,98931.20
2022-10-22T12:58:49.163Z,98931.80
2022-10-22T13:01:17.787Z,98932.60
2022-10-22T13:03:51.454Z,98931.40
2022-10-22T13:06:19.189Z,98927.00
2022-10-22T13:09:04.116Z,98925.60
2022-10-22T13:12:03.241Z,98930.80
2022-10-22T13:14:34.278Z,98925.60
2022-10-22T13:17:20.343Z,98928.00
2022-10-22T13:19:53.923Z,98926.60
2022-10-22T13:22:34.909Z,98925.00
2022-10-22T13:25:14.858Z,98924.20
2022-10-22T13:27:57.044Z,98922.40
2022-10-22T13:30:29.837Z,98917.40
2022-10-22T13:33:28.416Z,98918.80
2022-10-22T13:35:56.723Z,98923.80
2022-10-22T13:38:25.952Z,98929.60
2022-10-22T13:40:54.014Z,98917.20
2022-10-22T13:43:21.744Z,98914.60
2022-10-22T13:45:53.445Z,98912.60
2022-10-22T13:48:22.226Z,98918.40
2022-10-22T13:50:50.601Z,98919.00
2022-10-22T13:53:22.149Z,98919.60
2022-10-22T13:55:52.880Z,98918.20
2022-10-22T13:58:24.727Z,98918.00
2022-10-22T14:00:58.021Z,98916.60
2022-10-22T14:03:33.655Z,98921.00
2022-10-22T14:06:01.693Z,98916.40
2022-10-22T14:08:29.517Z,98916.00
2022-10-22T14:10:57.439Z,98910.40
2022-10-22T14:13:25.776Z,98903.00
2022-10-22T14:15:53.525Z,98910.60
2022-10-22T14:18:28.379Z,98910.00
2022-10-22T14:20:58.064Z,98907.80
2022-10-22T14:23:29.016Z,98906.80
2022-10-22T14:25:57.590Z,98909.20
2022-10-22T14:28:25.363Z,98904.40
2022-10-22T14:30:53.864Z,98915.80
2022-10-22T14:33:32.064Z,98913.80
2022-10-22T14:36:00.847Z,98912.00
2022-10-22T14:38:29.211Z,98912.40
2022-10-22T14:40:57.721Z,98914.20
2022-10-22T14:43:28.068Z,98914.80
2022-10-22T14:45:56.143Z,98917.80
2022-10-22T14:48:24.673Z,98918.80
2022-10-22T14:50:52.545Z,98918.20
2022-10-22T14:53:20.542Z,98919.20
2022-10-22T14:55:49.259Z,98917.00
2022-10-22T14:58:17.092Z,98916.00
2022-10-22T15:00:44.840Z,98917.00
2022-10-22T15:03:12.787Z,98917.60
2022-10-22T15:05:45.158Z,98914.80
2022-10-22T15:08:14.243Z,98917.80
2022-10-22T15:10:42.223Z,98924.40
2022-10-22T15:13:10.029Z,98927.20
2022-10-22T15:15:41.380Z,98928.60
2022-10-22T15:18:09.197Z,98932.80
2022-10-22T15:20:36.964Z,98931.60
2022-10-22T15:23:04.928Z,98928.40
2022-10-22T15:25:32.669Z,98927.40
2022-10-22T15:28:02.030Z,98931.60
2022-10-22T15:30:35.428Z,98924.80
2022-10-22T15:33:03.262Z,98933.40
2022-10-22T15:35:31.009Z,98932.40
2022-10-22T15:37:58.817Z,98933.40
2022-10-22T15:40:26.605Z,98940.80
2022-10-22T15:42:54.338Z,98943.80
2022-10-22T15:45:24.239Z,98943.40
2022-10-22T15:47:52.037Z,98937.60
2022-10-22T15:50:19.860Z,98940.20
2022-10-22T15:52:47.626Z,98947.40
2022-10-22T15:55:16.039Z,98945.40
2022-10-22T15:57:44.468Z,98949.00
2022-10-22T16:00:13.493Z,98954.00
2022-10-22T16:02:41.095Z,98959.40
2022-10-22T16:05:09.972Z,98956.80
2022-10-22T16:07:37.964Z,98958.00
2022-10-22T16:10:07.879Z,98957.80
2022-10-22T16:12:36.704Z,98962.80
2022-10-22T16:15:05.581Z,98961.80
2022-10-22T16:17:33.489Z,98962.80
2022-10-22T16:20:01.537Z,98966.60
2022-10-22T16:22:29.599Z,98967.60
2022-10-22T16:24:57.497Z,98966.80
2022-10-22T16:27:25.663Z,98974.80
2022-10-22T16:29:53.501Z,98975.60
2022-10-22T16:32:21.368Z,98974.00
2022-10-22T16:34:49.127Z,98978.80
2022-10-22T16:37:17.103Z,98986.20
2022-10-22T16:39:44.809Z,98986.40
2022-10-22T16:42:12.630Z,98986.80
2022-10-22T16:44:40.697Z,98987.60
2022-10-22T16:47:08.432Z,98993.60
2022-10-22T16:49:36.431Z,99000.60
2022-10-22T16:52:04.501Z,98999.60
2022-10-22T16:54:32.379Z,98999.20
2022-10-22T16:57:00.105Z,99003.60
2022-10-22T16:59:27.896Z,99004.80
2022-10-22T17:01:55.745Z,99009.40
2022-10-22T17:04:23.837Z,99011.00
2022-10-22T17:06:51.634Z,99006.40
2022-10-22T17:12:46.970Z,99014.60
2022-10-22T17:15:15.034Z,99012.60
2022-10-22T17:17:43.078Z,99009.80
2022-10-22T17:20:11.350Z,99014.60
2022-10-22T17:22:39.448Z,99013.80
2022-10-22T17:25:22.892Z,99013.00
2022-10-22T17:27:51.018Z,99014.20
2022-10-22T17:30:23.273Z,99016.40
2022-10-22T17:32:55.095Z,99017.80
2022-10-22T17:35:22.966Z,99019.00
2022-10-22T17:37:50.983Z,99017.60
2022-10-22T17:40:18.794Z,99020.60
2022-10-22T17:42:46.730Z,99014.00
2022-10-22T17:45:15.098Z,99009.40
2022-10-22T17:47:43.675Z,99010.80
2022-10-22T17:50:11.803Z,99013.00
2022-10-22T17:52:39.860Z,99015.20
2022-10-22T17:55:08.900Z,99015.60
2022-10-22T17:57:36.707Z,99015.60
2022-10-22T18:00:05.761Z,99016.20
2022-10-22T18:02:33.842Z,99019.60
2022-10-22T18:05:01.811Z,99019.60
2022-10-22T18:07:29.782Z,99018.40
2022-10-22T18:09:57.621Z,99023.00
2022-10-22T18:12:25.528Z,99022.20
2022-10-22T18:14:53.996Z,99028.00
2022-10-22T18:17:21.792Z,99024.00
2022-10-22T18:19:49.642Z,99027.80
2022-10-22T18:22:17.387Z,99030.20
2022-10-22T18:24:45.324Z,99031.00
2022-10-22T18:27:13.123Z,99033.20
2022-10-22T18:29:40.925Z,99036.80
2022-10-22T18:32:13.149Z,99042.40
2022-10-22T18:34:41.578Z,99043.60
2022-10-22T18:37:09.500Z,99048.20
2022-10-22T18:39:37.362Z,99046.40
2022-10-22T18:42:07.409Z,99047.80
2022-10-22T18:44:35.764Z,99053.80
2022-10-22T18:47:03.939Z,99050.80
2022-10-22T18:49:32.111Z,99050.40
2022-10-22T18:52:00.688Z,99053.00
2022-10-22T18:54:28.598Z,99056.60
2022-10-22T18:57:02.745Z,99054.80
2022-10-22T18:59:31.457Z,99057.80
2022-10-22T19:02:00.248Z,99063.40
2022-10-22T19:04:33.752Z,99065.00
2022-10-22T19:07:03.058Z,99068.80
2022-10-22T19:09:31.221Z,99071.20
2022-10-22T19:11:59.494Z,99078.20
2022-10-22T19:14:27.353Z,99079.20
2022-10-22T19:16:55.226Z,99081.60
2022-10-22T19:19:23.392Z,99082.00
2022-10-22T19:21:51.375Z,99089.80
2022-10-22T19:24:20.256Z,99092.20
2022-10-22T19:26:48.536Z,99091.80
2022-10-22T19:29:17.842Z,99086.80
2022-10-22T19:31:46.035Z,99093.60
2022-10-22T19:34:13.940Z,99095.80
2022-10-22T19:36:41.876Z,99104.20
2022-10-22T19:39:09.802Z,99105.40
2022-10-22T19:41:37.925Z,99118.60
2022-10-22T19:44:05.855Z,99111.60
2022-10-22T19:46:33.821Z,99120.60
2022-10-22T19:49:04.997Z,99122.80
2022-10-22T19:51:35.712Z,99125.80
2022-10-22T19:54:07.132Z,99127.20
2022-10-22T19:56:35.670Z,99135.80
2022-10-22T19:59:05.148Z,99140.20
2022-10-22T20:01:33.099Z,99139.80
2022-10-22T20:04:01.840Z,99142.00
2022-10-22T20:06:30.212Z,99146.40
2022-10-22T20:08:58.292Z,99146.20
2022-10-22T20:11:28.645Z,99151.00
2022-10-22T20:13:57.293Z,99148.20
2022-10-22T20:16:28.758Z,99154.80
2022-10-22T20:19:01.325Z,99158.00
2022-10-22T20:21:29.425Z,99153.20
2022-10-22T20:23:57.667Z,99162.80
2022-10-22T20:26:28.412Z,99158.00
2022-10-22T20:28:56.854Z,99156.80
2022-10-22T20:31:27.169Z,99164.00
2022-10-22T20:33:59.431Z,99161.40
2022-10-22T20:36:27.941Z,99161.60
2022-10-22T20:39:06.331Z,99162.60
2022-10-22T20:41:35.014Z,99161.20
2022-10-22T20:44:02.966Z,99161.40
2022-10-22T20:46:32.126Z,99162.80
2022-10-22T20:49:19.290Z,99171.20
2022-10-22T20:51:47.600Z,99172.00
2022-10-22T20:54:15.737Z,99177.00
2022-10-22T20:56:44.226Z,99169.40
2022-10-22T20:59:12.334Z,99171.80
2022-10-22T21:01:47.214Z,99176.00
2022-10-22T21:04:15.636Z,99177.80
2022-10-22T21:06:43.568Z,99177.80
2022-10-22T21:09:13.215Z,99176.20
2022-10-22T21:11:42.014Z,99178.00
2022-10-22T21:14:11.523Z,99176.60
2022-10-22T21:16:44.085Z,99173.80
2022-10-22T21:19:12.121Z,99175.60
2022-10-22T21:21:40.294Z,99181.40
2022-10-22T21:24:08.477Z,99183.60
2022-10-22T21:26:38.538Z,99189.20
2022-10-22T21:29:07.243Z,99191.40
2022-10-22T21:31:35.176Z,99189.40
2022-10-22T21:34:03.043Z,99191.40
2022-10-22T21:36:30.911Z,99192.80
2022-10-22T21:38:58.835Z,99187.20
2022-10-22T21:41:26.802Z,99190.40
2022-10-22T21:43:54.672Z,99187.40
2022-10-22T21:46:24.916Z,99191.00
2022-10-22T21:48:54.715Z,99193.20
2022-10-22T21:54:44.179Z,99202.60
2022-10-22T21:57:12.063Z,99200.40
2022-10-22T21:59:40.030Z,99201.60
2022-10-22T22:02:07.973Z,99206.20
2022-10-22T22:04:37.198Z,99205.00
2022-10-22T22:07:05.062Z,99203.80
2022-10-22T22:09:36.095Z,99204.60
2022-10-22T22:12:04.190Z,99207.00
2022-10-22T22:14:33.066Z,99204.60
2022-10-22T22:17:00.899Z,99206.20
2022-10-22T22:19:28.699Z,99207.00
2022-10-22T22:21:56.557Z,99208.60
2022-10-22T22:24:25.484Z,99206.80
2022-10-22T22:26:53.346Z,99204.60
2022-10-22T22:29:21.178Z,99209.00
2022-10-22T22:31:49.072Z,99215.40
2022-10-22T22:34:17.230Z,99216.80
2022-10-22T22:36:46.708Z,99215.00
2022-10-22T22:39:17.326Z,99217.00
2022-10-22T22:41:45.327Z,99221.80
2022-10-22T22:44:13.498Z,99226.60
2022-10-22T22:46:41.592Z,99229.80
2022-10-22T22:49:09.646Z,99228.80
2022-10-22T22:51:37.509Z,99226.20
2022-10-22T22:54:05.305Z,99226.60
2022-10-22T22:56:34.611Z,99232.40
2022-10-22T22:59:03.573Z,99230.80
2022-10-22T23:01:38.056Z,99225.20
2022-10-22T23:04:19.225Z,99228.40
2022-10-22T23:06:47.131Z,99229.60
2022-10-22T23:09:16.127Z,99239.60
2022-10-22T23:11:44.839Z,99237.20
2022-10-22T23:14:14.812Z,99230.20
2022-10-22T23:16:48.448Z,99237.20
2022-10-22T23:19:19.189Z,99235.60
2022-10-22T23:21:49.839Z,99238.20
2022-10-22T23:24:20.736Z,99239.60
2022-10-22T23:26:49.965Z,99241.20
2022-10-22T23:29:20.114Z,99242.60
2022-10-22T23:31:48.384Z,99244.80
2022-10-22T23:34:21.778Z,99251.60
2022-10-22T23:36:49.807Z,99252.20
2022-10-22T23:39:19.987Z,99256.00
2022-10-22T23:41:47.890Z,99257.40
2022-10-22T23:44:15.923Z,99257.80
2022-10-22T23:46:43.718Z,99261.80
2022-10-22T23:49:11.787Z,99260.60
2022-10-22T23:51:39.727Z,99265.80
2022-10-22T23:54:11.389Z,99260.40
2022-10-22T23:56:39.187Z,99258.60
2022-10-22T23:59:07.379Z,99259.00
